sensor_id;sensor_type;location;lat;lon;timestamp;temperature;humidity
3136;DHT22;1578;47.658;9.922;2023-09-18T00:00:48;15.50;93.10
3136;DHT22;1578;47.658;9.922;2023-09-18T00:03:20;15.50;92.60
3136;DHT22;1578;47.658;9.922;2023-09-18T00:05:46;15.50;92.10
3136;DHT22;1578;47.658;9.922;2023-09-18T00:08:16;15.50;91.90
3136;DHT22;1578;47.658;9.922;2023-09-18T00:10:42;15.60;90.60
3136;DHT22;1578;47.658;9.922;2023-09-18T00:13:11;15.60;89.20
3136;DHT22;1578;47.658;9.922;2023-09-18T00:15:37;15.60;89.80
3136;DHT22;1578;47.658;9.922;2023-09-18T00:18:03;15.60;89.40
3136;DHT22;1578;47.658;9.922;2023-09-18T00:20:29;15.40;90.10
3136;DHT22;1578;47.658;9.922;2023-09-18T00:22:55;15.30;88.60
3136;DHT22;1578;47.658;9.922;2023-09-18T00:25:21;15.20;90.20
3136;DHT22;1578;47.658;9.922;2023-09-18T00:27:47;15.00;91.40
3136;DHT22;1578;47.658;9.922;2023-09-18T00:30:13;15.20;91.40
3136;DHT22;1578;47.658;9.922;2023-09-18T00:32:38;15.20;91.80
3136;DHT22;1578;47.658;9.922;2023-09-18T00:35:04;15.30;91.10
3136;DHT22;1578;47.658;9.922;2023-09-18T00:37:30;15.30;91.40
3136;DHT22;1578;47.658;9.922;2023-09-18T00:39:55;15.20;91.50
3136;DHT22;1578;47.658;9.922;2023-09-18T00:42:21;15.30;91.60
3136;DHT22;1578;47.658;9.922;2023-09-18T00:44:48;15.50;90.70
3136;DHT22;1578;47.658;9.922;2023-09-18T00:47:15;15.40;90.60
3136;DHT22;1578;47.658;9.922;2023-09-18T00:49:44;15.40;90.40
3136;DHT22;1578;47.658;9.922;2023-09-18T00:52:10;15.40;91.20
3136;DHT22;1578;47.658;9.922;2023-09-18T00:54:37;15.40;90.90
3136;DHT22;1578;47.658;9.922;2023-09-18T00:57:05;15.50;90.00
3136;DHT22;1578;47.658;9.922;2023-09-18T00:59:31;15.50;90.00
3136;DHT22;1578;47.658;9.922;2023-09-18T01:01:57;15.50;90.20
3136;DHT22;1578;47.658;9.922;2023-09-18T01:04:23;15.50;88.30
3136;DHT22;1578;47.658;9.922;2023-09-18T01:06:51;15.40;88.60
3136;DHT22;1578;47.658;9.922;2023-09-18T01:09:19;15.40;90.20
3136;DHT22;1578;47.658;9.922;2023-09-18T01:11:50;15.50;90.10
3136;DHT22;1578;47.658;9.922;2023-09-18T01:14:21;15.50;90.30
3136;DHT22;1578;47.658;9.922;2023-09-18T01:16:58;15.40;90.20
3136;DHT22;1578;47.658;9.922;2023-09-18T01:19:40;15.30;90.00
3136;DHT22;1578;47.658;9.922;2023-09-18T01:22:07;15.20;91.00
3136;DHT22;1578;47.658;9.922;2023-09-18T01:24:34;15.20;91.10
3136;DHT22;1578;47.658;9.922;2023-09-18T01:27:01;15.20;89.60
3136;DHT22;1578;47.658;9.922;2023-09-18T01:29:26;15.10;90.20
3136;DHT22;1578;47.658;9.922;2023-09-18T01:31:53;15.00;90.40
3136;DHT22;1578;47.658;9.922;2023-09-18T01:34:21;15.00;90.50
3136;DHT22;1578;47.658;9.922;2023-09-18T01:36:47;15.00;91.00
3136;DHT22;1578;47.658;9.922;2023-09-18T01:39:14;15.00;91.10
3136;DHT22;1578;47.658;9.922;2023-09-18T01:41:41;15.10;89.70
3136;DHT22;1578;47.658;9.922;2023-09-18T01:44:07;15.00;88.70
3136;DHT22;1578;47.658;9.922;2023-09-18T01:46:33;15.00;88.80
3136;DHT22;1578;47.658;9.922;2023-09-18T01:49:02;15.00;88.10
3136;DHT22;1578;47.658;9.922;2023-09-18T01:51:29;15.00;87.90
3136;DHT22;1578;47.658;9.922;2023-09-18T01:53:56;15.00;89.50
3136;DHT22;1578;47.658;9.922;2023-09-18T01:56:22;14.90;87.10
3136;DHT22;1578;47.658;9.922;2023-09-18T01:58:47;14.60;89.30
3136;DHT22;1578;47.658;9.922;2023-09-18T02:01:13;14.70;91.50
3136;DHT22;1578;47.658;9.922;2023-09-18T02:03:38;14.80;90.90
3136;DHT22;1578;47.658;9.922;2023-09-18T02:06:10;14.70;90.10
3136;DHT22;1578;47.658;9.922;2023-09-18T02:08:35;14.60;90.60
3136;DHT22;1578;47.658;9.922;2023-09-18T02:11:01;14.50;90.80
3136;DHT22;1578;47.658;9.922;2023-09-18T02:13:28;14.50;91.40
3136;DHT22;1578;47.658;9.922;2023-09-18T02:15:54;14.60;90.80
3136;DHT22;1578;47.658;9.922;2023-09-18T02:18:21;14.50;90.00
3136;DHT22;1578;47.658;9.922;2023-09-18T02:20:46;14.40;90.70
3136;DHT22;1578;47.658;9.922;2023-09-18T02:23:14;14.50;90.60
3136;DHT22;1578;47.658;9.922;2023-09-18T02:25:41;14.30;90.60
3136;DHT22;1578;47.658;9.922;2023-09-18T02:28:07;14.20;90.60
3136;DHT22;1578;47.658;9.922;2023-09-18T02:30:32;14.30;90.70
3136;DHT22;1578;47.658;9.922;2023-09-18T02:32:58;14.30;90.10
3136;DHT22;1578;47.658;9.922;2023-09-18T02:35:25;14.10;90.90
3136;DHT22;1578;47.658;9.922;2023-09-18T02:37:51;14.10;92.30
3136;DHT22;1578;47.658;9.922;2023-09-18T02:40:17;14.10;91.70
3136;DHT22;1578;47.658;9.922;2023-09-18T02:42:43;14.00;91.70
3136;DHT22;1578;47.658;9.922;2023-09-18T02:45:09;14.00;92.10
3136;DHT22;1578;47.658;9.922;2023-09-18T02:47:35;13.90;92.50
3136;DHT22;1578;47.658;9.922;2023-09-18T02:50:04;14.00;93.30
3136;DHT22;1578;47.658;9.922;2023-09-18T02:52:30;14.00;92.60
3136;DHT22;1578;47.658;9.922;2023-09-18T02:54:56;14.00;92.40
3136;DHT22;1578;47.658;9.922;2023-09-18T02:57:22;14.10;92.20
3136;DHT22;1578;47.658;9.922;2023-09-18T02:59:47;14.10;91.90
3136;DHT22;1578;47.658;9.922;2023-09-18T03:02:13;14.00;91.70
3136;DHT22;1578;47.658;9.922;2023-09-18T03:04:38;14.00;92.50
3136;DHT22;1578;47.658;9.922;2023-09-18T03:07:04;14.10;92.40
3136;DHT22;1578;47.658;9.922;2023-09-18T03:09:30;14.20;92.00
3136;DHT22;1578;47.658;9.922;2023-09-18T03:11:56;14.20;91.50
3136;DHT22;1578;47.658;9.922;2023-09-18T03:14:21;14.30;91.30
3136;DHT22;1578;47.658;9.922;2023-09-18T03:16:47;14.30;91.20
3136;DHT22;1578;47.658;9.922;2023-09-18T03:19:12;14.20;91.00
3136;DHT22;1578;47.658;9.922;2023-09-18T03:21:38;14.20;90.90
3136;DHT22;1578;47.658;9.922;2023-09-18T03:24:04;14.40;90.40
3136;DHT22;1578;47.658;9.922;2023-09-18T03:26:29;14.40;89.70
3136;DHT22;1578;47.658;9.922;2023-09-18T03:28:55;14.40;88.60
3136;DHT22;1578;47.658;9.922;2023-09-18T03:31:21;14.20;87.90
3136;DHT22;1578;47.658;9.922;2023-09-18T03:33:46;14.20;89.70
3136;DHT22;1578;47.658;9.922;2023-09-18T03:36:12;14.10;90.60
3136;DHT22;1578;47.658;9.922;2023-09-18T03:38:39;14.10;90.60
3136;DHT22;1578;47.658;9.922;2023-09-18T03:41:04;14.10;91.10
3136;DHT22;1578;47.658;9.922;2023-09-18T03:43:30;14.10;91.70
3136;DHT22;1578;47.658;9.922;2023-09-18T03:46:05;14.10;90.90
3136;DHT22;1578;47.658;9.922;2023-09-18T03:48:31;14.20;90.90
3136;DHT22;1578;47.658;9.922;2023-09-18T03:51:03;14.20;91.20
3136;DHT22;1578;47.658;9.922;2023-09-18T03:53:29;14.00;90.40
3136;DHT22;1578;47.658;9.922;2023-09-18T03:55:55;14.00;91.80
3136;DHT22;1578;47.658;9.922;2023-09-18T03:58:20;14.00;91.50
3136;DHT22;1578;47.658;9.922;2023-09-18T04:00:46;14.00;91.80
3136;DHT22;1578;47.658;9.922;2023-09-18T04:03:12;13.90;91.30
3136;DHT22;1578;47.658;9.922;2023-09-18T04:05:37;13.90;90.50
3136;DHT22;1578;47.658;9.922;2023-09-18T04:08:03;13.90;91.40
3136;DHT22;1578;47.658;9.922;2023-09-18T04:10:29;14.00;90.70
3136;DHT22;1578;47.658;9.922;2023-09-18T04:12:54;13.90;90.50
3136;DHT22;1578;47.658;9.922;2023-09-18T04:15:20;13.90;90.60
3136;DHT22;1578;47.658;9.922;2023-09-18T04:17:48;14.00;91.20
3136;DHT22;1578;47.658;9.922;2023-09-18T04:20:14;13.90;90.60
3136;DHT22;1578;47.658;9.922;2023-09-18T04:22:45;13.70;92.30
3136;DHT22;1578;47.658;9.922;2023-09-18T04:25:15;13.90;92.60
3136;DHT22;1578;47.658;9.922;2023-09-18T04:27:40;13.90;92.00
3136;DHT22;1578;47.658;9.922;2023-09-18T04:30:07;13.90;92.60
3136;DHT22;1578;47.658;9.922;2023-09-18T04:32:36;13.90;92.50
3136;DHT22;1578;47.658;9.922;2023-09-18T04:35:03;13.90;92.50
3136;DHT22;1578;47.658;9.922;2023-09-18T04:37:31;14.00;92.70
3136;DHT22;1578;47.658;9.922;2023-09-18T04:39:57;14.00;92.50
3136;DHT22;1578;47.658;9.922;2023-09-18T04:42:23;14.10;91.40
3136;DHT22;1578;47.658;9.922;2023-09-18T04:44:49;14.00;91.60
3136;DHT22;1578;47.658;9.922;2023-09-18T04:47:14;14.00;92.10
3136;DHT22;1578;47.658;9.922;2023-09-18T04:49:40;14.00;93.10
3136;DHT22;1578;47.658;9.922;2023-09-18T04:52:06;14.20;94.50
3136;DHT22;1578;47.658;9.922;2023-09-18T04:54:31;14.50;93.90
3136;DHT22;1578;47.658;9.922;2023-09-18T04:56:57;14.70;92.30
3136;DHT22;1578;47.658;9.922;2023-09-18T04:59:23;14.90;91.60
3136;DHT22;1578;47.658;9.922;2023-09-18T05:01:48;14.90;91.70
3136;DHT22;1578;47.658;9.922;2023-09-18T05:04:14;15.00;90.80
3136;DHT22;1578;47.658;9.922;2023-09-18T05:06:39;15.00;89.30
3136;DHT22;1578;47.658;9.922;2023-09-18T05:09:07;14.90;89.70
3136;DHT22;1578;47.658;9.922;2023-09-18T05:11:33;14.80;91.20
3136;DHT22;1578;47.658;9.922;2023-09-18T05:13:59;14.80;90.60
3136;DHT22;1578;47.658;9.922;2023-09-18T05:16:25;14.70;90.90
3136;DHT22;1578;47.658;9.922;2023-09-18T05:18:50;14.70;90.90
3136;DHT22;1578;47.658;9.922;2023-09-18T05:21:16;14.90;91.00
3136;DHT22;1578;47.658;9.922;2023-09-18T05:23:43;15.00;89.70
3136;DHT22;1578;47.658;9.922;2023-09-18T05:26:08;15.00;89.70
3136;DHT22;1578;47.658;9.922;2023-09-18T05:28:34;15.00;89.40
3136;DHT22;1578;47.658;9.922;2023-09-18T05:31:00;15.00;90.20
3136;DHT22;1578;47.658;9.922;2023-09-18T05:33:25;15.10;88.00
3136;DHT22;1578;47.658;9.922;2023-09-18T05:35:51;15.10;88.80
3136;DHT22;1578;47.658;9.922;2023-09-18T05:38:17;15.20;88.10
3136;DHT22;1578;47.658;9.922;2023-09-18T05:40:43;15.30;88.40
3136;DHT22;1578;47.658;9.922;2023-09-18T05:43:10;15.30;87.10
3136;DHT22;1578;47.658;9.922;2023-09-18T05:45:37;15.30;84.80
3136;DHT22;1578;47.658;9.922;2023-09-18T05:48:03;15.30;86.70
3136;DHT22;1578;47.658;9.922;2023-09-18T05:50:30;15.30;86.80
3136;DHT22;1578;47.658;9.922;2023-09-18T05:52:57;15.30;85.80
3136;DHT22;1578;47.658;9.922;2023-09-18T05:55:26;15.30;86.70
3136;DHT22;1578;47.658;9.922;2023-09-18T05:57:53;15.30;86.80
3136;DHT22;1578;47.658;9.922;2023-09-18T06:00:19;15.40;85.50
3136;DHT22;1578;47.658;9.922;2023-09-18T06:02:45;15.50;84.70
3136;DHT22;1578;47.658;9.922;2023-09-18T06:05:11;15.70;84.40
3136;DHT22;1578;47.658;9.922;2023-09-18T06:07:37;15.90;82.10
3136;DHT22;1578;47.658;9.922;2023-09-18T06:10:03;15.90;82.20
3136;DHT22;1578;47.658;9.922;2023-09-18T06:12:29;16.00;82.40
3136;DHT22;1578;47.658;9.922;2023-09-18T06:14:55;16.00;85.00
3136;DHT22;1578;47.658;9.922;2023-09-18T06:17:21;16.00;86.80
3136;DHT22;1578;47.658;9.922;2023-09-18T06:19:46;16.30;86.30
3136;DHT22;1578;47.658;9.922;2023-09-18T06:22:12;16.40;87.70
3136;DHT22;1578;47.658;9.922;2023-09-18T06:24:39;16.50;87.70
3136;DHT22;1578;47.658;9.922;2023-09-18T06:27:04;16.80;83.10
3136;DHT22;1578;47.658;9.922;2023-09-18T06:29:31;17.10;84.10
3136;DHT22;1578;47.658;9.922;2023-09-18T06:31:57;17.30;82.70
3136;DHT22;1578;47.658;9.922;2023-09-18T06:34:23;17.60;77.50
3136;DHT22;1578;47.658;9.922;2023-09-18T06:36:48;17.70;77.90
3136;DHT22;1578;47.658;9.922;2023-09-18T06:39:14;17.90;81.80
3136;DHT22;1578;47.658;9.922;2023-09-18T06:41:40;18.10;79.90
3136;DHT22;1578;47.658;9.922;2023-09-18T06:44:06;18.30;77.60
3136;DHT22;1578;47.658;9.922;2023-09-18T06:46:31;18.30;78.50
3136;DHT22;1578;47.658;9.922;2023-09-18T06:48:57;18.50;81.70
3136;DHT22;1578;47.658;9.922;2023-09-18T06:51:25;18.70;75.20
3136;DHT22;1578;47.658;9.922;2023-09-18T06:53:51;18.80;77.20
3136;DHT22;1578;47.658;9.922;2023-09-18T06:56:17;19.00;77.30
3136;DHT22;1578;47.658;9.922;2023-09-18T06:58:42;19.10;74.80
3136;DHT22;1578;47.658;9.922;2023-09-18T07:01:08;19.20;77.70
3136;DHT22;1578;47.658;9.922;2023-09-18T07:03:35;19.30;73.90
3136;DHT22;1578;47.658;9.922;2023-09-18T07:06:02;19.30;72.40
3136;DHT22;1578;47.658;9.922;2023-09-18T07:08:30;19.20;75.90
3136;DHT22;1578;47.658;9.922;2023-09-18T07:10:58;19.20;76.60
3136;DHT22;1578;47.658;9.922;2023-09-18T07:13:24;19.20;75.00
3136;DHT22;1578;47.658;9.922;2023-09-18T07:15:49;19.40;74.00
3136;DHT22;1578;47.658;9.922;2023-09-18T07:18:15;19.50;72.70
3136;DHT22;1578;47.658;9.922;2023-09-18T07:20:41;19.70;72.50
3136;DHT22;1578;47.658;9.922;2023-09-18T07:23:07;19.60;70.80
3136;DHT22;1578;47.658;9.922;2023-09-18T07:25:32;19.70;71.80
3136;DHT22;1578;47.658;9.922;2023-09-18T07:27:58;19.80;70.90
3136;DHT22;1578;47.658;9.922;2023-09-18T07:30:25;20.00;70.60
3136;DHT22;1578;47.658;9.922;2023-09-18T07:32:54;20.00;67.60
3136;DHT22;1578;47.658;9.922;2023-09-18T07:35:24;20.10;65.10
3136;DHT22;1578;47.658;9.922;2023-09-18T07:37:49;20.10;66.30
3136;DHT22;1578;47.658;9.922;2023-09-18T07:40:15;19.90;67.50
3136;DHT22;1578;47.658;9.922;2023-09-18T07:42:44;19.80;69.60
3136;DHT22;1578;47.658;9.922;2023-09-18T07:45:12;19.60;71.80
3136;DHT22;1578;47.658;9.922;2023-09-18T07:47:38;19.60;72.10
3136;DHT22;1578;47.658;9.922;2023-09-18T07:50:04;19.80;69.50
3136;DHT22;1578;47.658;9.922;2023-09-18T07:52:30;19.90;71.50
3136;DHT22;1578;47.658;9.922;2023-09-18T07:54:57;20.00;69.80
3136;DHT22;1578;47.658;9.922;2023-09-18T07:57:26;20.10;67.60
3136;DHT22;1578;47.658;9.922;2023-09-18T07:59:53;20.10;66.00
3136;DHT22;1578;47.658;9.922;2023-09-18T08:02:19;20.20;61.20
3136;DHT22;1578;47.658;9.922;2023-09-18T08:04:45;20.10;61.10
3136;DHT22;1578;47.658;9.922;2023-09-18T08:07:10;20.20;61.30
3136;DHT22;1578;47.658;9.922;2023-09-18T08:09:37;20.20;60.40
3136;DHT22;1578;47.658;9.922;2023-09-18T08:12:07;20.20;64.10
3136;DHT22;1578;47.658;9.922;2023-09-18T08:14:34;20.20;63.00
3136;DHT22;1578;47.658;9.922;2023-09-18T08:17:01;20.40;57.70
3136;DHT22;1578;47.658;9.922;2023-09-18T08:19:30;20.50;56.70
3136;DHT22;1578;47.658;9.922;2023-09-18T08:21:57;20.60;57.30
3136;DHT22;1578;47.658;9.922;2023-09-18T08:24:23;20.70;56.20
3136;DHT22;1578;47.658;9.922;2023-09-18T08:26:49;20.70;52.20
3136;DHT22;1578;47.658;9.922;2023-09-18T08:29:15;20.70;51.50
3136;DHT22;1578;47.658;9.922;2023-09-18T08:31:41;20.60;55.00
3136;DHT22;1578;47.658;9.922;2023-09-18T08:34:07;20.70;50.40
3136;DHT22;1578;47.658;9.922;2023-09-18T08:36:33;20.50;47.30
3136;DHT22;1578;47.658;9.922;2023-09-18T08:38:59;20.50;50.00
3136;DHT22;1578;47.658;9.922;2023-09-18T08:41:24;20.40;52.20
3136;DHT22;1578;47.658;9.922;2023-09-18T08:43:56;20.10;48.80
3136;DHT22;1578;47.658;9.922;2023-09-18T08:46:23;20.00;51.50
3136;DHT22;1578;47.658;9.922;2023-09-18T08:48:50;20.00;51.00
3136;DHT22;1578;47.658;9.922;2023-09-18T08:51:16;20.00;55.40
3136;DHT22;1578;47.658;9.922;2023-09-18T08:53:43;20.00;50.80
3136;DHT22;1578;47.658;9.922;2023-09-18T08:56:09;19.90;53.90
3136;DHT22;1578;47.658;9.922;2023-09-18T08:58:37;19.90;55.50
3136;DHT22;1578;47.658;9.922;2023-09-18T09:01:05;19.80;52.00
3136;DHT22;1578;47.658;9.922;2023-09-18T09:03:35;19.60;56.40
3136;DHT22;1578;47.658;9.922;2023-09-18T09:06:01;19.50;59.20
3136;DHT22;1578;47.658;9.922;2023-09-18T09:08:30;19.40;60.70
3136;DHT22;1578;47.658;9.922;2023-09-18T09:10:55;19.10;65.60
3136;DHT22;1578;47.658;9.922;2023-09-18T09:13:24;19.00;69.60
3136;DHT22;1578;47.658;9.922;2023-09-18T09:15:52;18.90;73.10
3136;DHT22;1578;47.658;9.922;2023-09-18T09:18:19;18.90;70.00
3136;DHT22;1578;47.658;9.922;2023-09-18T09:21:03;18.80;70.00
3136;DHT22;1578;47.658;9.922;2023-09-18T09:23:51;18.70;73.30
3136;DHT22;1578;47.658;9.922;2023-09-18T09:26:19;18.60;75.40
3136;DHT22;1578;47.658;9.922;2023-09-18T09:28:45;18.50;75.50
3136;DHT22;1578;47.658;9.922;2023-09-18T09:31:11;18.40;77.70
3136;DHT22;1578;47.658;9.922;2023-09-18T09:33:37;18.20;80.10
3136;DHT22;1578;47.658;9.922;2023-09-18T09:36:06;18.10;81.90
3136;DHT22;1578;47.658;9.922;2023-09-18T09:38:33;18.00;82.40
3136;DHT22;1578;47.658;9.922;2023-09-18T09:41:02;17.80;86.80
3136;DHT22;1578;47.658;9.922;2023-09-18T09:43:32;17.70;87.30
3136;DHT22;1578;47.658;9.922;2023-09-18T09:46:02;17.60;88.90
3136;DHT22;1578;47.658;9.922;2023-09-18T09:48:28;17.50;90.40
3136;DHT22;1578;47.658;9.922;2023-09-18T09:51:00;17.40;91.70
3136;DHT22;1578;47.658;9.922;2023-09-18T09:53:46;17.50;92.50
3136;DHT22;1578;47.658;9.922;2023-09-18T09:56:16;17.50;92.90
3136;DHT22;1578;47.658;9.922;2023-09-18T09:59:03;17.60;94.40
3136;DHT22;1578;47.658;9.922;2023-09-18T10:01:35;17.60;95.40
3136;DHT22;1578;47.658;9.922;2023-09-18T10:04:08;17.60;94.70
3136;DHT22;1578;47.658;9.922;2023-09-18T10:06:36;17.50;95.10
3136;DHT22;1578;47.658;9.922;2023-09-18T10:09:03;17.50;94.70
3136;DHT22;1578;47.658;9.922;2023-09-18T10:11:33;17.60;95.20
3136;DHT22;1578;47.658;9.922;2023-09-18T10:14:19;17.60;94.70
3136;DHT22;1578;47.658;9.922;2023-09-18T10:16:49;17.40;95.50
3136;DHT22;1578;47.658;9.922;2023-09-18T10:22:01;17.40;94.80
3136;DHT22;1578;47.658;9.922;2023-09-18T10:24:34;17.30;95.20
3136;DHT22;1578;47.658;9.922;2023-09-18T10:27:03;17.30;93.90
3136;DHT22;1578;47.658;9.922;2023-09-18T10:29:32;17.20;94.10
3136;DHT22;1578;47.658;9.922;2023-09-18T10:32:03;17.20;95.80
3136;DHT22;1578;47.658;9.922;2023-09-18T10:34:29;17.40;94.90
3136;DHT22;1578;47.658;9.922;2023-09-18T10:36:56;17.40;94.30
3136;DHT22;1578;47.658;9.922;2023-09-18T10:39:24;17.30;94.00
3136;DHT22;1578;47.658;9.922;2023-09-18T10:41:55;17.30;95.70
3136;DHT22;1578;47.658;9.922;2023-09-18T10:44:23;17.30;94.10
3136;DHT22;1578;47.658;9.922;2023-09-18T10:46:50;17.30;94.00
3136;DHT22;1578;47.658;9.922;2023-09-18T10:49:18;17.40;96.20
3136;DHT22;1578;47.658;9.922;2023-09-18T10:51:44;17.50;95.30
3136;DHT22;1578;47.658;9.922;2023-09-18T10:54:14;17.60;95.60
3136;DHT22;1578;47.658;9.922;2023-09-18T10:56:44;17.70;94.00
3136;DHT22;1578;47.658;9.922;2023-09-18T10:59:09;17.80;93.10
3136;DHT22;1578;47.658;9.922;2023-09-18T11:01:36;17.80;94.00
3136;DHT22;1578;47.658;9.922;2023-09-18T11:04:04;17.80;92.20
3136;DHT22;1578;47.658;9.922;2023-09-18T11:11:45;17.70;92.10
3136;DHT22;1578;47.658;9.922;2023-09-18T11:14:14;17.50;90.10
3136;DHT22;1578;47.658;9.922;2023-09-18T11:16:40;17.40;92.60
3136;DHT22;1578;47.658;9.922;2023-09-18T11:19:16;17.50;92.10
3136;DHT22;1578;47.658;9.922;2023-09-18T11:21:43;17.60;93.90
3136;DHT22;1578;47.658;9.922;2023-09-18T11:26:42;17.70;87.70
3136;DHT22;1578;47.658;9.922;2023-09-18T11:29:10;17.80;90.80
3136;DHT22;1578;47.658;9.922;2023-09-18T11:31:56;17.80;88.10
3136;DHT22;1578;47.658;9.922;2023-09-18T11:34:23;17.70;87.60
3136;DHT22;1578;47.658;9.922;2023-09-18T11:36:50;17.80;90.00
3136;DHT22;1578;47.658;9.922;2023-09-18T11:39:38;18.10;91.20
3136;DHT22;1578;47.658;9.922;2023-09-18T11:42:11;18.30;80.70
3136;DHT22;1578;47.658;9.922;2023-09-18T11:44:40;18.40;83.50
3136;DHT22;1578;47.658;9.922;2023-09-18T11:47:11;18.50;79.80
3136;DHT22;1578;47.658;9.922;2023-09-18T11:50:13;18.40;76.50
3136;DHT22;1578;47.658;9.922;2023-09-18T11:52:40;18.60;76.40
3136;DHT22;1578;47.658;9.922;2023-09-18T11:55:06;18.80;75.20
3136;DHT22;1578;47.658;9.922;2023-09-18T11:57:37;18.80;79.80
3136;DHT22;1578;47.658;9.922;2023-09-18T12:00:03;18.90;78.10
3136;DHT22;1578;47.658;9.922;2023-09-18T12:02:38;19.00;78.20
3136;DHT22;1578;47.658;9.922;2023-09-18T12:05:13;19.00;73.20
3136;DHT22;1578;47.658;9.922;2023-09-18T12:07:41;19.10;78.30
3136;DHT22;1578;47.658;9.922;2023-09-18T12:10:12;19.20;80.10
3136;DHT22;1578;47.658;9.922;2023-09-18T12:12:41;19.30;70.20
3136;DHT22;1578;47.658;9.922;2023-09-18T12:15:11;19.30;71.00
3136;DHT22;1578;47.658;9.922;2023-09-18T12:17:37;19.30;73.20
3136;DHT22;1578;47.658;9.922;2023-09-18T12:20:02;19.40;75.50
3136;DHT22;1578;47.658;9.922;2023-09-18T12:22:30;19.50;72.30
3136;DHT22;1578;47.658;9.922;2023-09-18T12:25:09;19.70;68.60
3136;DHT22;1578;47.658;9.922;2023-09-18T12:27:38;19.80;62.40
3136;DHT22;1578;47.658;9.922;2023-09-18T12:30:04;19.70;61.10
3136;DHT22;1578;47.658;9.922;2023-09-18T12:32:30;19.80;62.00
3136;DHT22;1578;47.658;9.922;2023-09-18T12:34:58;19.70;60.00
3136;DHT22;1578;47.658;9.922;2023-09-18T12:37:24;19.70;62.50
3136;DHT22;1578;47.658;9.922;2023-09-18T12:39:50;19.70;58.60
3136;DHT22;1578;47.658;9.922;2023-09-18T12:42:18;19.60;74.20
3136;DHT22;1578;47.658;9.922;2023-09-18T12:44:47;19.60;64.70
3136;DHT22;1578;47.658;9.922;2023-09-18T12:47:13;19.50;65.40
3136;DHT22;1578;47.658;9.922;2023-09-18T12:49:38;19.60;63.50
3136;DHT22;1578;47.658;9.922;2023-09-18T12:52:06;19.60;65.00
3136;DHT22;1578;47.658;9.922;2023-09-18T12:57:07;19.50;62.70
3136;DHT22;1578;47.658;9.922;2023-09-18T12:59:34;19.50;59.80
3136;DHT22;1578;47.658;9.922;2023-09-18T13:02:02;19.50;62.40
3136;DHT22;1578;47.658;9.922;2023-09-18T13:04:34;19.60;66.70
3136;DHT22;1578;47.658;9.922;2023-09-18T13:07:10;19.60;56.60
3136;DHT22;1578;47.658;9.922;2023-09-18T13:09:36;19.70;58.20
3136;DHT22;1578;47.658;9.922;2023-09-18T13:12:03;19.70;68.90
3136;DHT22;1578;47.658;9.922;2023-09-18T13:14:29;19.70;67.20
3136;DHT22;1578;47.658;9.922;2023-09-18T13:17:04;19.80;62.40
3136;DHT22;1578;47.658;9.922;2023-09-18T13:19:30;19.80;56.20
3136;DHT22;1578;47.658;9.922;2023-09-18T13:21:55;19.80;50.70
3136;DHT22;1578;47.658;9.922;2023-09-18T13:24:28;19.60;57.70
3136;DHT22;1578;47.658;9.922;2023-09-18T13:26:55;19.50;53.10
3136;DHT22;1578;47.658;9.922;2023-09-18T13:29:21;19.50;53.90
3136;DHT22;1578;47.658;9.922;2023-09-18T13:31:47;19.50;56.40
3136;DHT22;1578;47.658;9.922;2023-09-18T13:34:13;19.50;57.90
3136;DHT22;1578;47.658;9.922;2023-09-18T13:36:39;19.70;57.40
3136;DHT22;1578;47.658;9.922;2023-09-18T13:39:06;19.80;66.50
3136;DHT22;1578;47.658;9.922;2023-09-18T13:41:32;19.90;54.00
3136;DHT22;1578;47.658;9.922;2023-09-18T13:43:57;19.90;54.70
3136;DHT22;1578;47.658;9.922;2023-09-18T13:46:24;19.80;52.90
3136;DHT22;1578;47.658;9.922;2023-09-18T13:48:49;20.00;56.60
3136;DHT22;1578;47.658;9.922;2023-09-18T13:51:16;20.30;54.60
3136;DHT22;1578;47.658;9.922;2023-09-18T13:53:42;20.60;48.40
3136;DHT22;1578;47.658;9.922;2023-09-18T13:56:08;20.90;46.60
3136;DHT22;1578;47.658;9.922;2023-09-18T13:58:34;21.00;49.40
3136;DHT22;1578;47.658;9.922;2023-09-18T14:01:01;21.00;46.00
3136;DHT22;1578;47.658;9.922;2023-09-18T14:03:26;21.10;47.10
3136;DHT22;1578;47.658;9.922;2023-09-18T14:05:52;21.20;37.80
3136;DHT22;1578;47.658;9.922;2023-09-18T14:08:18;21.20;45.90
3136;DHT22;1578;47.658;9.922;2023-09-18T14:10:44;21.30;36.20
3136;DHT22;1578;47.658;9.922;2023-09-18T14:13:10;21.30;32.40
3136;DHT22;1578;47.658;9.922;2023-09-18T14:15:35;21.10;34.90
3136;DHT22;1578;47.658;9.922;2023-09-18T14:18:02;21.10;39.60
3136;DHT22;1578;47.658;9.922;2023-09-18T14:20:29;21.10;43.40
3136;DHT22;1578;47.658;9.922;2023-09-18T14:22:54;21.20;48.90
3136;DHT22;1578;47.658;9.922;2023-09-18T14:25:20;21.00;51.80
3136;DHT22;1578;47.658;9.922;2023-09-18T14:27:48;20.80;54.20
3136;DHT22;1578;47.658;9.922;2023-09-18T14:30:14;20.90;54.60
3136;DHT22;1578;47.658;9.922;2023-09-18T14:32:39;20.80;56.10
3136;DHT22;1578;47.658;9.922;2023-09-18T14:35:06;20.80;56.00
3136;DHT22;1578;47.658;9.922;2023-09-18T14:37:34;21.10;55.00
3136;DHT22;1578;47.658;9.922;2023-09-18T14:40:00;21.20;53.70
3136;DHT22;1578;47.658;9.922;2023-09-18T14:42:25;21.10;54.20
3136;DHT22;1578;47.658;9.922;2023-09-18T14:44:51;21.30;54.80
3136;DHT22;1578;47.658;9.922;2023-09-18T14:47:17;21.40;46.20
3136;DHT22;1578;47.658;9.922;2023-09-18T14:49:42;21.30;47.40
3136;DHT22;1578;47.658;9.922;2023-09-18T14:52:13;21.30;39.20
3136;DHT22;1578;47.658;9.922;2023-09-18T14:54:40;21.40;49.20
3136;DHT22;1578;47.658;9.922;2023-09-18T14:57:05;21.50;48.00
3136;DHT22;1578;47.658;9.922;2023-09-18T14:59:31;21.60;47.50
3136;DHT22;1578;47.658;9.922;2023-09-18T15:01:57;21.60;45.00
3136;DHT22;1578;47.658;9.922;2023-09-18T15:04:23;21.50;40.00
3136;DHT22;1578;47.658;9.922;2023-09-18T15:06:48;21.30;41.70
3136;DHT22;1578;47.658;9.922;2023-09-18T15:09:14;21.30;36.10
3136;DHT22;1578;47.658;9.922;2023-09-18T15:11:39;21.10;39.80
3136;DHT22;1578;47.658;9.922;2023-09-18T15:14:05;21.10;35.80
3136;DHT22;1578;47.658;9.922;2023-09-18T15:16:31;21.00;41.00
3136;DHT22;1578;47.658;9.922;2023-09-18T15:18:57;21.00;35.00
3136;DHT22;1578;47.658;9.922;2023-09-18T15:21:27;20.70;37.40
3136;DHT22;1578;47.658;9.922;2023-09-18T15:23:54;20.60;47.20
3136;DHT22;1578;47.658;9.922;2023-09-18T15:26:21;20.60;51.50
3136;DHT22;1578;47.658;9.922;2023-09-18T15:28:46;20.60;53.70
3136;DHT22;1578;47.658;9.922;2023-09-18T15:31:12;20.70;56.20
3136;DHT22;1578;47.658;9.922;2023-09-18T15:33:38;20.80;54.70
3136;DHT22;1578;47.658;9.922;2023-09-18T15:36:06;20.90;54.20
3136;DHT22;1578;47.658;9.922;2023-09-18T15:38:31;20.90;56.50
3136;DHT22;1578;47.658;9.922;2023-09-18T15:40:57;20.90;54.20
3136;DHT22;1578;47.658;9.922;2023-09-18T15:43:25;20.60;56.10
3136;DHT22;1578;47.658;9.922;2023-09-18T15:45:50;20.50;56.10
3136;DHT22;1578;47.658;9.922;2023-09-18T15:48:16;20.60;55.10
3136;DHT22;1578;47.658;9.922;2023-09-18T15:50:43;20.60;53.70
3136;DHT22;1578;47.658;9.922;2023-09-18T15:53:09;20.50;52.10
3136;DHT22;1578;47.658;9.922;2023-09-18T15:55:35;20.20;53.60
3136;DHT22;1578;47.658;9.922;2023-09-18T15:58:02;20.40;53.20
3136;DHT22;1578;47.658;9.922;2023-09-18T16:00:27;20.50;54.60
3136;DHT22;1578;47.658;9.922;2023-09-18T16:02:54;20.50;51.30
3136;DHT22;1578;47.658;9.922;2023-09-18T16:05:21;20.50;53.70
3136;DHT22;1578;47.658;9.922;2023-09-18T16:07:52;20.30;55.80
3136;DHT22;1578;47.658;9.922;2023-09-18T16:10:23;20.30;57.30
3136;DHT22;1578;47.658;9.922;2023-09-18T16:12:49;20.10;58.10
3136;DHT22;1578;47.658;9.922;2023-09-18T16:15:16;20.10;59.60